sensor_id;sensor_type;location;lat;lon;timestamp;pressure;altitude;pressure_sealevel;temperature;humidity
2675;BME280;1347;42.122;24.746;2023-04-15T00:01:42;98815.84;;;12.88;86.01
2675;BME280;1347;42.122;24.746;2023-04-15T00:04:09;98818.19;;;12.83;86.42
2675;BME280;1347;42.122;24.746;2023-04-15T00:06:36;98806.88;;;12.74;86.94
2675;BME280;1347;42.122;24.746;2023-04-15T00:09:04;98806.06;;;12.73;87.13
2675;BME280;1347;42.122;24.746;2023-04-15T00:11:30;98803.38;;;12.63;87.22
2675;BME280;1347;42.122;24.746;2023-04-15T00:13:57;98804.50;;;12.72;86.85
2675;BME280;1347;42.122;24.746;2023-04-15T00:16:26;98812.75;;;12.76;86.42
2675;BME280;1347;42.122;24.746;2023-04-15T00:18:53;98814.75;;;12.68;87.02
2675;BME280;1347;42.122;24.746;2023-04-15T00:21:19;98823.84;;;12.62;87.42
2675;BME280;1347;42.122;24.746;2023-04-15T00:23:46;98823.41;;;12.63;87.34
2675;BME280;1347;42.122;24.746;2023-04-15T00:26:17;98828.91;;;12.63;87.48
2675;BME280;1347;42.122;24.746;2023-04-15T00:28:45;98825.75;;;12.65;87.71
2675;BME280;1347;42.122;24.746;2023-04-15T00:31:12;98821.03;;;12.69;87.54
2675;BME280;1347;42.122;24.746;2023-04-15T00:33:41;98813.59;;;12.69;86.90
2675;BME280;1347;42.122;24.746;2023-04-15T00:36:08;98804.50;;;12.72;87.19
2675;BME280;1347;42.122;24.746;2023-04-15T00:38:37;98803.88;;;12.43;88.42
2675;BME280;1347;42.122;24.746;2023-04-15T00:41:04;98806.22;;;12.48;88.66
2675;BME280;1347;42.122;24.746;2023-04-15T00:43:31;98810.88;;;12.55;88.36
2675;BME280;1347;42.122;24.746;2023-04-15T00:45:58;98805.81;;;12.50;88.45
2675;BME280;1347;42.122;24.746;2023-04-15T00:48:27;98814.06;;;12.43;89.30
2675;BME280;1347;42.122;24.746;2023-04-15T00:50:55;98815.69;;;12.33;89.94
2675;BME280;1347;42.122;24.746;2023-04-15T00:53:22;98811.41;;;12.25;90.92
2675;BME280;1347;42.122;24.746;2023-04-15T00:55:49;98807.56;;;11.84;92.91
2675;BME280;1347;42.122;24.746;2023-04-15T00:58:17;98816.94;;;12.11;91.76
2675;BME280;1347;42.122;24.746;2023-04-15T01:00:44;98803.94;;;12.26;91.20
2675;BME280;1347;42.122;24.746;2023-04-15T01:03:12;98801.19;;;12.29;90.29
2675;BME280;1347;42.122;24.746;2023-04-15T01:05:39;98792.94;;;12.29;89.00
2675;BME280;1347;42.122;24.746;2023-04-15T01:08:08;98794.13;;;12.25;88.70
2675;BME280;1347;42.122;24.746;2023-04-15T01:10:35;98794.59;;;12.09;88.99
2675;BME280;1347;42.122;24.746;2023-04-15T01:13:02;98796.53;;;12.01;88.53
2675;BME280;1347;42.122;24.746;2023-04-15T01:15:30;98794.59;;;11.95;88.74
2675;BME280;1347;42.122;24.746;2023-04-15T01:17:57;98800.91;;;11.81;89.23
2675;BME280;1347;42.122;24.746;2023-04-15T01:20:25;98806.41;;;11.88;89.17
2675;BME280;1347;42.122;24.746;2023-04-15T01:22:53;98801.69;;;11.89;88.89
2675;BME280;1347;42.122;24.746;2023-04-15T01:25:28;98816.97;;;11.97;88.29
2675;BME280;1347;42.122;24.746;2023-04-15T01:27:56;98820.91;;;11.96;88.19
2675;BME280;1347;42.122;24.746;2023-04-15T01:30:23;98817.34;;;12.02;87.39
2675;BME280;1347;42.122;24.746;2023-04-15T01:32:51;98824.00;;;12.01;86.50
2675;BME280;1347;42.122;24.746;2023-04-15T01:35:18;98818.94;;;12.00;86.30
2675;BME280;1347;42.122;24.746;2023-04-15T01:37:45;98817.34;;;12.02;86.11
2675;BME280;1347;42.122;24.746;2023-04-15T01:40:12;98815.41;;;11.96;85.59
2675;BME280;1347;42.122;24.746;2023-04-15T01:42:41;98808.72;;;11.93;85.08
2675;BME280;1347;42.122;24.746;2023-04-15T01:45:08;98816.63;;;11.77;84.75
2675;BME280;1347;42.122;24.746;2023-04-15T01:47:35;98825.63;;;11.77;84.52
2675;BME280;1347;42.122;24.746;2023-04-15T01:50:02;98831.88;;;11.71;84.83
2675;BME280;1347;42.122;24.746;2023-04-15T01:52:29;98828.34;;;11.63;84.86
2675;BME280;1347;42.122;24.746;2023-04-15T01:54:56;98826.78;;;11.66;84.35
2675;BME280;1347;42.122;24.746;2023-04-15T01:57:23;98829.94;;;11.39;83.87
2675;BME280;1347;42.122;24.746;2023-04-15T01:59:52;98840.47;;;11.20;84.61
2675;BME280;1347;42.122;24.746;2023-04-15T02:02:18;98854.97;;;11.13;84.08
2675;BME280;1347;42.122;24.746;2023-04-15T02:04:45;98860.47;;;11.13;83.93
2675;BME280;1347;42.122;24.746;2023-04-15T02:07:12;98858.13;;;11.08;84.31
2675;BME280;1347;42.122;24.746;2023-04-15T02:09:39;98864.41;;;11.16;83.69
2675;BME280;1347;42.122;24.746;2023-04-15T02:12:06;98853.81;;;11.07;83.14
2675;BME280;1347;42.122;24.746;2023-04-15T02:14:33;98867.13;;;11.05;83.43
2675;BME280;1347;42.122;24.746;2023-04-15T02:17:01;98857.69;;;11.10;83.16
2675;BME280;1347;42.122;24.746;2023-04-15T02:19:31;98858.13;;;11.08;83.08
2675;BME280;1347;42.122;24.746;2023-04-15T02:21:58;98857.72;;;11.13;81.99
2675;BME280;1347;42.122;24.746;2023-04-15T02:24:26;98849.09;;;11.15;82.08
2675;BME280;1347;42.122;24.746;2023-04-15T02:26:53;98859.63;;;10.88;82.83
2675;BME280;1347;42.122;24.746;2023-04-15T02:29:20;98864.31;;;10.91;83.04
2675;BME280;1347;42.122;24.746;2023-04-15T02:31:48;98868.25;;;11.00;82.85
2675;BME280;1347;42.122;24.746;2023-04-15T02:34:16;98854.16;;;10.95;83.11
2675;BME280;1347;42.122;24.746;2023-04-15T02:36:43;98840.06;;;11.03;82.91
2675;BME280;1347;42.122;24.746;2023-04-15T02:39:11;98840.50;;;11.09;82.42
2675;BME280;1347;42.122;24.746;2023-04-15T02:41:41;98852.63;;;11.12;82.58
2675;BME280;1347;42.122;24.746;2023-04-15T02:44:08;98853.78;;;11.03;82.58
2675;BME280;1347;42.122;24.746;2023-04-15T02:46:37;98849.88;;;11.12;82.25
2675;BME280;1347;42.122;24.746;2023-04-15T02:49:05;98853.03;;;11.14;81.75
2675;BME280;1347;42.122;24.746;2023-04-15T02:51:34;98864.00;;;11.17;81.54
2675;BME280;1347;42.122;24.746;2023-04-15T02:54:01;98862.03;;;11.21;81.47
2675;BME280;1347;42.122;24.746;2023-04-15T02:56:28;98864.00;;;11.31;81.01
2675;BME280;1347;42.122;24.746;2023-04-15T02:58:55;98864.44;;;11.37;80.80
2675;BME280;1347;42.122;24.746;2023-04-15T03:01:22;98871.09;;;11.47;79.82
2675;BME280;1347;42.122;24.746;2023-04-15T03:03:50;98868.34;;;11.43;80.09
2675;BME280;1347;42.122;24.746;2023-04-15T03:06:17;98856.97;;;11.41;80.03
2675;BME280;1347;42.122;24.746;2023-04-15T03:08:45;98852.66;;;11.33;80.24
2675;BME280;1347;42.122;24.746;2023-04-15T03:11:13;98854.56;;;11.11;81.85
2675;BME280;1347;42.122;24.746;2023-04-15T03:13:40;98861.66;;;11.16;81.18
2675;BME280;1347;42.122;24.746;2023-04-15T03:16:08;98872.22;;;11.14;81.78
2675;BME280;1347;42.122;24.746;2023-04-15T03:18:34;98873.75;;;10.97;81.29
2675;BME280;1347;42.122;24.746;2023-04-15T03:21:02;98886.84;;;10.42;84.15
2675;BME280;1347;42.122;24.746;2023-04-15T03:23:30;98889.97;;;10.44;84.82
2675;BME280;1347;42.122;24.746;2023-04-15T03:26:00;98887.31;;;10.58;84.52
2675;BME280;1347;42.122;24.746;2023-04-15T03:28:27;98886.97;;;10.66;83.92
2675;BME280;1347;42.122;24.746;2023-04-15T03:30:55;98886.97;;;10.74;83.55
2675;BME280;1347;42.122;24.746;2023-04-15T03:33:22;98893.66;;;10.76;82.80
2675;BME280;1347;42.122;24.746;2023-04-15T03:35:49;98899.13;;;10.73;83.39
2675;BME280;1347;42.122;24.746;2023-04-15T03:38:16;98909.69;;;10.70;83.55
2675;BME280;1347;42.122;24.746;2023-04-15T03:40:44;98918.34;;;10.76;83.42
2675;BME280;1347;42.122;24.746;2023-04-15T03:43:12;98928.50;;;10.68;83.72
2675;BME280;1347;42.122;24.746;2023-04-15T03:45:39;98926.53;;;10.73;83.16
2675;BME280;1347;42.122;24.746;2023-04-15T03:48:06;98924.25;;;10.85;82.33
2675;BME280;1347;42.122;24.746;2023-04-15T03:50:33;98924.63;;;10.84;81.83
2675;BME280;1347;42.122;24.746;2023-04-15T03:53:00;98930.50;;;10.89;81.23
2675;BME280;1347;42.122;24.746;2023-04-15T03:55:27;98934.81;;;10.90;80.62
2675;BME280;1347;42.122;24.746;2023-04-15T03:57:54;98932.81;;;10.77;80.86
2675;BME280;1347;42.122;24.746;2023-04-15T04:00:22;98939.09;;;10.77;80.70
2675;BME280;1347;42.122;24.746;2023-04-15T04:02:49;98948.06;;;10.67;80.90
2675;BME280;1347;42.122;24.746;2023-04-15T04:05:16;98955.50;;;10.70;80.90
2675;BME280;1347;42.122;24.746;2023-04-15T04:07:43;98950.72;;;10.56;81.07
2675;BME280;1347;42.122;24.746;2023-04-15T04:10:10;98939.41;;;10.58;81.21
2675;BME280;1347;42.122;24.746;2023-04-15T04:12:37;98937.81;;;10.60;81.05
2675;BME280;1347;42.122;24.746;2023-04-15T04:15:04;98949.16;;;10.59;81.34
2675;BME280;1347;42.122;24.746;2023-04-15T04:17:34;98951.09;;;10.48;81.59
2675;BME280;1347;42.122;24.746;2023-04-15T04:20:01;98950.22;;;10.40;81.14
2675;BME280;1347;42.122;24.746;2023-04-15T04:22:28;98958.75;;;10.24;81.64
2675;BME280;1347;42.122;24.746;2023-04-15T04:24:55;98964.59;;;10.23;81.51
2675;BME280;1347;42.122;24.746;2023-04-15T04:27:23;98956.75;;;10.21;81.99
2675;BME280;1347;42.122;24.746;2023-04-15T04:29:50;98958.22;;;10.12;81.86
2675;BME280;1347;42.122;24.746;2023-04-15T04:32:17;98966.88;;;10.17;81.47
2675;BME280;1347;42.122;24.746;2023-04-15T04:34:45;98969.88;;;10.02;81.18
2675;BME280;1347;42.122;24.746;2023-04-15T04:37:12;98959.38;;;10.07;80.99
2675;BME280;1347;42.122;24.746;2023-04-15T04:39:39;98968.91;;;9.76;81.74
2675;BME280;1347;42.122;24.746;2023-04-15T04:42:06;98973.28;;;9.88;81.73
2675;BME280;1347;42.122;24.746;2023-04-15T04:44:33;98978.84;;;9.95;81.09
2675;BME280;1347;42.122;24.746;2023-04-15T04:47:00;98988.16;;;9.90;81.18
2675;BME280;1347;42.122;24.746;2023-04-15T04:49:27;98979.63;;;9.95;81.51
2675;BME280;1347;42.122;24.746;2023-04-15T04:51:55;98973.06;;;10.11;81.00
2675;BME280;1347;42.122;24.746;2023-04-15T04:54:23;98968.81;;;10.13;80.68
2675;BME280;1347;42.122;24.746;2023-04-15T04:56:49;98978.91;;;10.06;81.19
2675;BME280;1347;42.122;24.746;2023-04-15T04:59:16;98977.00;;;10.13;81.44
2675;BME280;1347;42.122;24.746;2023-04-15T05:01:43;98977.44;;;10.15;81.33
2675;BME280;1347;42.122;24.746;2023-04-15T05:04:10;98969.00;;;10.35;80.84
2675;BME280;1347;42.122;24.746;2023-04-15T05:06:37;98971.34;;;10.36;80.77
2675;BME280;1347;42.122;24.746;2023-04-15T05:09:05;98968.66;;;10.43;81.11
2675;BME280;1347;42.122;24.746;2023-04-15T05:11:32;98974.56;;;10.52;80.69
2675;BME280;1347;42.122;24.746;2023-04-15T05:13:59;98977.03;;;10.68;80.05
2675;BME280;1347;42.122;24.746;2023-04-15T05:16:26;98982.16;;;10.77;79.58
2675;BME280;1347;42.122;24.746;2023-04-15T05:18:53;98980.25;;;10.84;79.05
2675;BME280;1347;42.122;24.746;2023-04-15T05:21:20;98972.09;;;10.98;79.56
2675;BME280;1347;42.122;24.746;2023-04-15T05:23:47;98973.69;;;11.10;78.99
2675;BME280;1347;42.122;24.746;2023-04-15T05:26:15;98974.53;;;11.25;79.10
2675;BME280;1347;42.122;24.746;2023-04-15T05:28:43;98972.63;;;11.39;78.40
2675;BME280;1347;42.122;24.746;2023-04-15T05:31:10;98982.09;;;11.67;77.67
2675;BME280;1347;42.122;24.746;2023-04-15T05:33:37;98985.66;;;11.82;76.94
2675;BME280;1347;42.122;24.746;2023-04-15T05:36:05;98991.97;;;11.96;75.49
2675;BME280;1347;42.122;24.746;2023-04-15T05:38:32;99002.19;;;12.13;74.65
2675;BME280;1347;42.122;24.746;2023-04-15T05:40:59;99005.31;;;12.33;73.96
2675;BME280;1347;42.122;24.746;2023-04-15T05:43:27;99009.25;;;12.50;74.01
2675;BME280;1347;42.122;24.746;2023-04-15T05:45:55;99013.56;;;12.62;72.90
2675;BME280;1347;42.122;24.746;2023-04-15T05:48:22;99017.44;;;12.75;72.45
2675;BME280;1347;42.122;24.746;2023-04-15T05:50:48;99019.38;;;12.85;72.10
2675;BME280;1347;42.122;24.746;2023-04-15T05:53:15;99024.94;;;12.71;71.12
2675;BME280;1347;42.122;24.746;2023-04-15T05:55:42;99024.50;;;12.79;71.71
2675;BME280;1347;42.122;24.746;2023-04-15T05:58:09;99028.00;;;12.94;70.78
2675;BME280;1347;42.122;24.746;2023-04-15T06:00:38;99034.66;;;13.21;70.36
2675;BME280;1347;42.122;24.746;2023-04-15T06:03:05;99042.81;;;13.43;69.80
2675;BME280;1347;42.122;24.746;2023-04-15T06:05:32;99041.56;;;13.54;68.91
2675;BME280;1347;42.122;24.746;2023-04-15T06:07:59;99041.13;;;13.67;68.38
2675;BME280;1347;42.122;24.746;2023-04-15T06:10:26;99029.31;;;13.73;67.98
2675;BME280;1347;42.122;24.746;2023-04-15T06:12:52;99040.59;;;13.89;68.44
2675;BME280;1347;42.122;24.746;2023-04-15T06:15:19;99045.50;;;14.23;67.51
2675;BME280;1347;42.122;24.746;2023-04-15T06:17:48;99046.88;;;14.49;66.43
2675;BME280;1347;42.122;24.746;2023-04-15T06:20:15;99053.47;;;14.62;65.88
2675;BME280;1347;42.122;24.746;2023-04-15T06:22:42;99047.59;;;15.01;65.75
2675;BME280;1347;42.122;24.746;2023-04-15T06:25:09;99047.66;;;15.28;64.69
2675;BME280;1347;42.122;24.746;2023-04-15T06:27:36;99058.53;;;15.45;63.80
2675;BME280;1347;42.122;24.746;2023-04-15T06:30:03;99055.03;;;15.72;62.76
2675;BME280;1347;42.122;24.746;2023-04-15T06:32:31;99057.94;;;15.92;62.75
2675;BME280;1347;42.122;24.746;2023-04-15T06:34:59;99055.00;;;16.29;61.37
2675;BME280;1347;42.122;24.746;2023-04-15T06:37:27;99068.44;;;16.04;61.89
2675;BME280;1347;42.122;24.746;2023-04-15T06:39:53;99062.25;;;16.70;60.46
2675;BME280;1347;42.122;24.746;2023-04-15T06:42:20;99061.31;;;17.23;59.68
2675;BME280;1347;42.122;24.746;2023-04-15T06:44:48;99061.88;;;17.74;57.84
2675;BME280;1347;42.122;24.746;2023-04-15T06:47:15;99073.19;;;18.35;55.93
2675;BME280;1347;42.122;24.746;2023-04-15T06:49:42;99070.34;;;19.45;54.57
2675;BME280;1347;42.122;24.746;2023-04-15T06:52:10;99069.25;;;19.84;52.50
2675;BME280;1347;42.122;24.746;2023-04-15T06:54:38;99072.59;;;19.92;52.79
2675;BME280;1347;42.122;24.746;2023-04-15T06:57:04;99070.25;;;22.81;47.68
2675;BME280;1347;42.122;24.746;2023-04-15T06:59:31;99073.94;;;23.96;44.63
2675;BME280;1347;42.122;24.746;2023-04-15T07:01:58;99075.88;;;23.08;45.55
2675;BME280;1347;42.122;24.746;2023-04-15T07:04:28;99071.53;;;25.26;42.44
2675;BME280;1347;42.122;24.746;2023-04-15T07:06:55;99070.88;;;27.45;39.93
2675;BME280;1347;42.122;24.746;2023-04-15T07:09:24;99086.38;;;28.12;37.07
2675;BME280;1347;42.122;24.746;2023-04-15T07:11:51;99086.81;;;30.31;34.58
2675;BME280;1347;42.122;24.746;2023-04-15T07:14:18;99088.59;;;29.95;34.28
2675;BME280;1347;42.122;24.746;2023-04-15T07:16:45;99088.38;;;25.26;40.92
2675;BME280;1347;42.122;24.746;2023-04-15T07:19:12;99081.63;;;26.16;40.13
2675;BME280;1347;42.122;24.746;2023-04-15T07:21:39;99079.22;;;25.41;41.25
2675;BME280;1347;42.122;24.746;2023-04-15T07:24:06;99091.13;;;24.88;41.63
2675;BME280;1347;42.122;24.746;2023-04-15T07:26:36;99080.94;;;25.62;41.97
2675;BME280;1347;42.122;24.746;2023-04-15T07:29:03;99091.66;;;30.70;35.95
2675;BME280;1347;42.122;24.746;2023-04-15T07:31:30;99106.97;;;31.71;33.15
2675;BME280;1347;42.122;24.746;2023-04-15T07:33:56;99107.16;;;34.62;30.80
2675;BME280;1347;42.122;24.746;2023-04-15T07:36:24;99099.69;;;32.23;31.24
2675;BME280;1347;42.122;24.746;2023-04-15T07:38:51;99097.00;;;35.32;29.01
2675;BME280;1347;42.122;24.746;2023-04-15T07:41:18;99098.63;;;35.88;27.87
2675;BME280;1347;42.122;24.746;2023-04-15T07:43:47;99097.38;;;36.31;26.68
2675;BME280;1347;42.122;24.746;2023-04-15T07:46:14;99096.44;;;38.69;25.72
2675;BME280;1347;42.122;24.746;2023-04-15T07:48:41;99093.78;;;38.41;25.48
2675;BME280;1347;42.122;24.746;2023-04-15T07:51:08;99097.22;;;38.62;25.41
2675;BME280;1347;42.122;24.746;2023-04-15T07:53:37;99098.34;;;38.97;24.79
2675;BME280;1347;42.122;24.746;2023-04-15T07:56:04;99088.28;;;39.36;25.14
2675;BME280;1347;42.122;24.746;2023-04-15T07:58:31;99095.03;;;40.53;23.86
2675;BME280;1347;42.122;24.746;2023-04-15T08:01:00;99093.91;;;37.38;25.35
2675;BME280;1347;42.122;24.746;2023-04-15T08:03:27;99090.25;;;37.89;25.43
2675;BME280;1347;42.122;24.746;2023-04-15T08:05:54;99091.88;;;35.78;26.30
2675;BME280;1347;42.122;24.746;2023-04-15T08:08:20;99093.19;;;37.45;25.87
2675;BME280;1347;42.122;24.746;2023-04-15T08:10:48;99088.25;;;41.52;23.00
2675;BME280;1347;42.122;24.746;2023-04-15T08:13:15;99085.06;;;41.75;22.68
2675;BME280;1347;42.122;24.746;2023-04-15T08:15:42;99094.50;;;39.02;24.01
2675;BME280;1347;42.122;24.746;2023-04-15T08:18:10;99091.22;;;37.76;25.06
2675;BME280;1347;42.122;24.746;2023-04-15T08:20:37;99091.50;;;40.13;23.16
2675;BME280;1347;42.122;24.746;2023-04-15T08:23:04;99089.81;;;37.18;24.73
2675;BME280;1347;42.122;24.746;2023-04-15T08:25:31;99099.47;;;38.79;24.29
2675;BME280;1347;42.122;24.746;2023-04-15T08:27:58;99094.25;;;40.53;23.32
2675;BME280;1347;42.122;24.746;2023-04-15T08:30:25;99084.47;;;40.06;22.54
2675;BME280;1347;42.122;24.746;2023-04-15T08:32:52;99088.59;;;42.46;21.68
2675;BME280;1347;42.122;24.746;2023-04-15T08:35:20;99087.53;;;44.67;20.69
2675;BME280;1347;42.122;24.746;2023-04-15T08:37:47;99073.13;;;44.27;19.88
2675;BME280;1347;42.122;24.746;2023-04-15T08:40:14;99078.13;;;42.14;21.39
2675;BME280;1347;42.122;24.746;2023-04-15T08:42:43;99072.28;;;41.24;22.02
2675;BME280;1347;42.122;24.746;2023-04-15T08:45:15;99071.03;;;42.71;21.27
2675;BME280;1347;42.122;24.746;2023-04-15T08:47:44;99080.00;;;42.75;21.17
2675;BME280;1347;42.122;24.746;2023-04-15T08:50:13;99082.63;;;44.70;19.47
2675;BME280;1347;42.122;24.746;2023-04-15T08:52:43;99076.38;;;45.49;19.00
2675;BME280;1347;42.122;24.746;2023-04-15T08:55:11;99084.00;;;43.66;19.99
2675;BME280;1347;42.122;24.746;2023-04-15T08:57:39;99072.75;;;40.12;22.30
2675;BME280;1347;42.122;24.746;2023-04-15T09:00:06;99084.03;;;45.12;19.17
2675;BME280;1347;42.122;24.746;2023-04-15T09:02:34;99081.97;;;45.02;18.78
2675;BME280;1347;42.122;24.746;2023-04-15T09:05:01;99081.72;;;45.64;19.04
2675;BME280;1347;42.122;24.746;2023-04-15T09:07:32;99069.97;;;46.42;18.72
2675;BME280;1347;42.122;24.746;2023-04-15T09:10:02;99070.75;;;39.64;21.74
2675;BME280;1347;42.122;24.746;2023-04-15T09:12:29;99065.06;;;40.14;22.07
2675;BME280;1347;42.122;24.746;2023-04-15T09:14:56;99069.28;;;38.93;22.95
2675;BME280;1347;42.122;24.746;2023-04-15T09:17:23;99067.63;;;40.94;22.12
2675;BME280;1347;42.122;24.746;2023-04-15T09:20:07;99067.47;;;37.61;24.63
2675;BME280;1347;42.122;24.746;2023-04-15T09:22:34;99048.69;;;35.27;25.65
2675;BME280;1347;42.122;24.746;2023-04-15T09:25:05;99047.13;;;31.39;29.36
2675;BME280;1347;42.122;24.746;2023-04-15T09:27:52;99038.72;;;28.46;32.72
2675;BME280;1347;42.122;24.746;2023-04-15T09:30:19;99033.56;;;30.41;31.50
2675;BME280;1347;42.122;24.746;2023-04-15T09:32:49;99032.47;;;28.31;33.23
2675;BME280;1347;42.122;24.746;2023-04-15T09:35:17;99029.78;;;28.53;33.05
2675;BME280;1347;42.122;24.746;2023-04-15T09:37:44;99025.03;;;27.96;34.21
2675;BME280;1347;42.122;24.746;2023-04-15T09:40:13;99033.59;;;30.30;31.09
2675;BME280;1347;42.122;24.746;2023-04-15T09:42:53;99030.34;;;32.18;29.09
2675;BME280;1347;42.122;24.746;2023-04-15T09:45:21;99022.63;;;30.90;29.12
2675;BME280;1347;42.122;24.746;2023-04-15T09:47:48;99033.06;;;29.81;30.79
2675;BME280;1347;42.122;24.746;2023-04-15T09:50:18;99030.25;;;32.53;28.38
2675;BME280;1347;42.122;24.746;2023-04-15T09:52:46;99029.63;;;35.90;25.81
2675;BME280;1347;42.122;24.746;2023-04-15T09:55:16;99024.59;;;34.62;26.09
2675;BME280;1347;42.122;24.746;2023-04-15T09:57:44;99021.03;;;28.88;31.16
2675;BME280;1347;42.122;24.746;2023-04-15T10:00:12;99024.56;;;31.23;29.00
2675;BME280;1347;42.122;24.746;2023-04-15T10:02:40;99021.59;;;30.87;29.74
2675;BME280;1347;42.122;24.746;2023-04-15T10:05:09;99029.22;;;29.84;29.64
2675;BME280;1347;42.122;24.746;2023-04-15T10:07:37;99024.19;;;29.12;31.13
2675;BME280;1347;42.122;24.746;2023-04-15T10:10:06;99012.41;;;32.34;27.97
2675;BME280;1347;42.122;24.746;2023-04-15T10:12:36;99017.63;;;35.70;25.41
2675;BME280;1347;42.122;24.746;2023-04-15T10:15:04;99014.09;;;37.04;24.60
2675;BME280;1347;42.122;24.746;2023-04-15T10:17:32;99017.16;;;38.79;22.69
2675;BME280;1347;42.122;24.746;2023-04-15T10:20:02;99013.56;;;40.93;21.52
2675;BME280;1347;42.122;24.746;2023-04-15T10:22:31;99003.47;;;39.83;21.35
2675;BME280;1347;42.122;24.746;2023-04-15T10:24:58;99011.19;;;37.40;21.66
2675;BME280;1347;42.122;24.746;2023-04-15T10:27:26;98986.19;;;32.71;25.45
2675;BME280;1347;42.122;24.746;2023-04-15T10:29:55;98990.25;;;28.96;30.31
2675;BME280;1347;42.122;24.746;2023-04-15T10:32:23;98993.97;;;31.87;26.94
2675;BME280;1347;42.122;24.746;2023-04-15T10:34:51;98980.63;;;30.99;28.49
2675;BME280;1347;42.122;24.746;2023-04-15T10:37:20;98978.19;;;31.26;27.54
2675;BME280;1347;42.122;24.746;2023-04-15T10:39:47;98986.22;;;31.22;27.06
2675;BME280;1347;42.122;24.746;2023-04-15T10:42:15;98976.31;;;29.68;28.96
2675;BME280;1347;42.122;24.746;2023-04-15T10:44:44;98975.94;;;28.51;30.00
2675;BME280;1347;42.122;24.746;2023-04-15T10:47:17;98962.59;;;29.16;30.48
2675;BME280;1347;42.122;24.746;2023-04-15T10:49:48;98971.59;;;28.13;32.21
2675;BME280;1347;42.122;24.746;2023-04-15T10:52:16;98960.63;;;29.45;31.39
2675;BME280;1347;42.122;24.746;2023-04-15T10:54:44;98965.75;;;32.30;28.71
2675;BME280;1347;42.122;24.746;2023-04-15T10:57:20;98962.28;;;28.86;32.89
2675;BME280;1347;42.122;24.746;2023-04-15T11:00:10;98957.97;;;27.43;34.86
2675;BME280;1347;42.122;24.746;2023-04-15T11:02:44;98953.06;;;28.01;33.91
2675;BME280;1347;42.122;24.746;2023-04-15T11:05:12;98961.53;;;28.97;32.72
2675;BME280;1347;42.122;24.746;2023-04-15T11:07:50;98960.38;;;29.87;30.88
2675;BME280;1347;42.122;24.746;2023-04-15T11:10:51;98959.03;;;30.33;30.45
2675;BME280;1347;42.122;24.746;2023-04-15T11:13:22;98951.34;;;29.27;31.93
2675;BME280;1347;42.122;24.746;2023-04-15T11:15:55;98955.13;;;30.47;30.80
2675;BME280;1347;42.122;24.746;2023-04-15T11:18:25;98950.84;;;30.18;31.25
2675;BME280;1347;42.122;24.746;2023-04-15T11:20:54;98939.56;;;30.82;30.18
2675;BME280;1347;42.122;24.746;2023-04-15T11:23:28;98940.63;;;28.67;32.58
2675;BME280;1347;42.122;24.746;2023-04-15T11:25:55;98945.16;;;27.42;33.85
2675;BME280;1347;42.122;24.746;2023-04-15T11:28:25;98941.25;;;28.28;33.14
2675;BME280;1347;42.122;24.746;2023-04-15T11:30:52;98935.16;;;29.22;32.53
2675;BME280;1347;42.122;24.746;2023-04-15T11:33:20;98936.31;;;28.77;32.89
2675;BME280;1347;42.122;24.746;2023-04-15T11:35:50;98937.41;;;27.57;34.09
2675;BME280;1347;42.122;24.746;2023-04-15T11:38:18;98929.59;;;28.15;33.87
2675;BME280;1347;42.122;24.746;2023-04-15T11:40:45;98925.75;;;28.66;33.67
2675;BME280;1347;42.122;24.746;2023-04-15T11:43:14;98924.34;;;28.34;33.95
2675;BME280;1347;42.122;24.746;2023-04-15T11:45:51;98925.31;;;28.25;34.02
2675;BME280;1347;42.122;24.746;2023-04-15T11:48:19;98919.31;;;27.69;35.04
2675;BME280;1347;42.122;24.746;2023-04-15T11:50:53;98915.03;;;27.48;35.63
2675;BME280;1347;42.122;24.746;2023-04-15T11:53:21;98913.81;;;28.29;35.08
2675;BME280;1347;42.122;24.746;2023-04-15T11:55:50;98910.56;;;26.03;37.66
2675;BME280;1347;42.122;24.746;2023-04-15T11:58:19;98899.97;;;26.73;37.26
2675;BME280;1347;42.122;24.746;2023-04-15T12:00:48;98907.25;;;27.06;35.91
2675;BME280;1347;42.122;24.746;2023-04-15T12:03:19;98896.91;;;26.31;37.86
2675;BME280;1347;42.122;24.746;2023-04-15T12:06:10;98893.78;;;27.16;36.50
2675;BME280;1347;42.122;24.746;2023-04-15T12:11:31;98892.22;;;24.84;38.78
2675;BME280;1347;42.122;24.746;2023-04-15T12:14:03;98885.97;;;25.48;37.66
2675;BME280;1347;42.122;24.746;2023-04-15T12:16:31;98893.66;;;26.58;36.35
2675;BME280;1347;42.122;24.746;2023-04-15T12:18:59;98890.06;;;26.58;35.22
2675;BME280;1347;42.122;24.746;2023-04-15T12:21:35;98894.34;;;28.31;34.27
2675;BME280;1347;42.122;24.746;2023-04-15T12:24:03;98895.72;;;30.47;31.30
2675;BME280;1347;42.122;24.746;2023-04-15T12:26:33;98883.41;;;30.91;30.59
2675;BME280;1347;42.122;24.746;2023-04-15T12:29:02;98886.97;;;32.41;29.04
2675;BME280;1347;42.122;24.746;2023-04-15T12:31:29;98887.38;;;33.39;28.25
2675;BME280;1347;42.122;24.746;2023-04-15T12:33:56;98890.72;;;33.56;28.42
2675;BME280;1347;42.122;24.746;2023-04-15T12:36:23;98899.47;;;31.49;30.20
2675;BME280;1347;42.122;24.746;2023-04-15T12:38:52;98892.56;;;29.09;33.06
2675;BME280;1347;42.122;24.746;2023-04-15T12:41:19;98890.06;;;28.46;34.19
2675;BME280;1347;42.122;24.746;2023-04-15T12:43:46;98884.81;;;28.23;34.23
2675;BME280;1347;42.122;24.746;2023-04-15T12:46:13;98885.84;;;27.45;35.54
2675;BME280;1347;42.122;24.746;2023-04-15T12:48:41;98881.56;;;26.98;36.65
2675;BME280;1347;42.122;24.746;2023-04-15T12:51:08;98891.25;;;25.76;38.99
2675;BME280;1347;42.122;24.746;2023-04-15T12:53:35;98895.69;;;25.33;39.48
2675;BME280;1347;42.122;24.746;2023-04-15T12:56:03;98893.00;;;24.85;40.60
2675;BME280;1347;42.122;24.746;2023-04-15T12:58:30;98897.50;;;23.81;42.50
2675;BME280;1347;42.122;24.746;2023-04-15T13:00:58;98889.25;;;23.78;42.73
2675;BME280;1347;42.122;24.746;2023-04-15T13:03:25;98893.88;;;23.48;43.44
2675;BME280;1347;42.122;24.746;2023-04-15T13:05:51;98893.59;;;23.37;44.10
2675;BME280;1347;42.122;24.746;2023-04-15T13:08:18;98893.72;;;23.52;44.21
2675;BME280;1347;42.122;24.746;2023-04-15T13:10:45;98891.19;;;23.63;44.52
2675;BME280;1347;42.122;24.746;2023-04-15T13:13:14;98888.28;;;23.57;44.42
2675;BME280;1347;42.122;24.746;2023-04-15T13:15:41;98887.34;;;23.42;45.05
2675;BME280;1347;42.122;24.746;2023-04-15T13:18:10;98887.97;;;22.86;46.35